Portada
METAR-TAF:

METAR-TAF

Aeroports :

Txungking, Xina

latitud: 29-31N, longitud: 106-29E, altitud: 351 m

Observació

L'informe es va fer fa 57 minuts, a les 00:00 UTC
Vent 6 kt del Nord/Nord-Est
Temperatura 12°C
Humitat 82%
Pressió 1025 hPa
Visibilitat: 6000 m
Escasses núvols a una alçada de 1300 ft
Cel ennuvolat a una alçada de 2300 ft
Cel cobert a una alçada de 4000 ft

METAR: ZUCK 040000Z 02003MPS 6000 FEW013 BKN023 OVC040 12/09 Q1025 NOSIG

Hora: 08:57 (00:57 UTC)

Pronòstic

L'informe es va fer fa 3 hores i 52 minuts, a les 21:05 UTC
Pronòstic vàlid del 04 a les 00 UTC al 04 a les 24 UTC
Vent 6 kt del Nord/Nord-Est
Visibilitat: 6000 m
Núvols disperses a una alçada de 2000 ft
Cel cobert a una alçada de 5000 ft
Evolucionant progressivament
l' 04 a les 14 UTC al 04 a les 15 UTC
Visibilitat: 3500 m
pluja, boirina

TAF: ZUCK 032105Z 0400/0424 03003MPS 6000 SCT020 OVC050 TX15/0408Z TN12/0422Z BECMG 0414/0415 3500 -RA BR

Observacions i pronòstics meteorològics de més de 4000 aeroports (METAR i TAF).

Les estacions disponibles són els punts grocs i vermells al mapa.

Posi el ratolí al punt desitjat per veure el nom de l'estació.

Feu clic per veure les observacions i els pronòstics meteorològics.

Per canviar el mapa: feu clic els botons verds amb una creu de color negre per apropar; al botó verd amb un guió per allunyar la imatge; o en les fletxes verdes per a mapes adjacents.


METAR-TAF: